Time;durP1;ratioP1;P1;durP2;ratioP2;P2;SDS_P1;SDS_P2;PMS_P1;PMS_P2;Temp;Humidity;BMP_temperature;BMP_pressure;BME280_temperature;BME280_humidity;BME280_pressure;Samples;Min_cycle;Max_cycle;Signal;HPM_P1;HPM_P2
2023/02/10 00:07:05;;;;;;;;;;;5.40;99.90;;;;;;4995354;28;19910;-80
2023/02/10 00:13:01;;;;;;;;;;;5.40;95.10;;;;;;5102186;22;19973;-80
2023/02/10 00:15:36;;;;;;;;;;;5.50;63.10;;;;;;5078104;28;19943;-80
2023/02/10 00:18:44;;;;;;;;;;;;;;;;;;;;;
2023/02/10 00:24:53;;;;;;;;;;;5.50;1.00;;;;;;5051525;28;19970;-80
2023/02/10 00:27:27;;;;;;;;;;;5.60;5.30;;;;;;5076484;28;19908;-80
2023/02/10 00:33:17;;;;;;;;;;;5.70;1.00;;;;;;5075590;28;19909;-80
2023/02/10 00:35:45;;;;;;;;;;;5.80;99.90;;;;;;5058702;28;19974;-80
2023/02/10 00:42:03;;;;;;;;;;;5.80;99.90;;;;;;5076755;28;20405;-80
2023/02/10 00:45:07;;;;;;;;;;;5.80;17.10;;;;;;5069848;28;19912;-80
2023/02/10 00:48:14;;;;;;;;;;;;;;;;;;;;;
2023/02/10 00:50:59;;;;;;;;;;;5.80;99.90;;;;;;5076556;28;20506;-80
2023/02/10 01:05:44;;;;;;;;;;;5.40;1.00;;;;;;5014865;28;19917;-81
2023/02/10 01:08:51;;;;;;;;;;;5.40;1.00;;;;;;5049420;28;19940;-81
2023/02/10 01:30:41;;;;;;;;;;;5.30;99.90;;;;;;5053104;28;19916;-79
2023/02/10 01:36:18;;;;;;;;;;;5.30;99.90;;;;;;5083337;28;20060;-80
2023/02/10 01:39:38;;;;;;;;;;;;;;;;;;;;;
2023/02/10 02:07:43;;;;;;;;;;;;;;;;;;;;;
2023/02/10 02:16:36;;;;;;;;;;;5.30;1.00;;;;;;5058482;28;19909;-80
2023/02/10 02:22:30;;;;;;;;;;;5.40;1.00;;;;;;4996990;28;19910;-80
2023/02/10 02:35:14;;;;;;;;;;;;;;;;;;;;;
2023/02/10 02:41:02;;;;;;;;;;;5.60;99.90;;;;;;4996708;28;19910;-80
2023/02/10 02:43:57;;;;;;;;;;;;;;;;;;;;;
2023/02/10 02:59:19;;;;;;;;;;;5.60;99.90;;;;;;5022046;28;19999;-80
2023/02/10 03:05:38;;;;;;;;;;;5.60;99.90;;;;;;4995995;28;19956;-79
2023/02/10 03:20:44;;;;;;;;;;;;;;;;;;;;;
2023/02/10 03:32:51;;;;;;;;;;;5.40;99.90;;;;;;5046871;28;19908;-80
2023/02/10 03:48:21;;;;;;;;;;;;;;;;;;;;;
2023/02/10 04:09:50;;;;;;;;;;;4.70;1.00;;;;;;5055884;28;19921;-79
2023/02/10 04:15:51;;;;;;;;;;;4.40;1.00;;;;;;5026457;28;19909;-79
2023/02/10 04:18:34;;;;;;;;;;;4.40;1.00;;;;;;5034990;28;19909;-80
2023/02/10 04:21:35;;;;;;;;;;;4.40;1.00;;;;;;5035719;28;19921;-80
2023/02/10 04:24:09;;;;;;;;;;;4.30;1.00;;;;;;5035420;28;19923;-79
2023/02/10 04:32:54;;;;;;;;;;;4.00;1.00;;;;;;4997533;28;19913;-79
2023/02/10 04:41:37;;;;;;;;;;;;;;;;;;;;;
2023/02/10 04:51:25;;;;;;;;;;;;;;;;;;;;;
2023/02/10 04:54:07;;;;;;;;;;;;;;;;;;;;;
2023/02/10 04:57:04;;;;;;;;;;;3.00;1.00;;;;;;4996397;28;20371;-80
2023/02/10 05:02:30;;;;;;;;;;;3.00;1.00;;;;;;4997078;28;19920;-80
2023/02/10 05:05:27;;;;;;;;;;;3.00;1.00;;;;;;4980689;28;19917;-80
2023/02/10 05:08:26;;;;;;;;;;;;;;;;;;;;;
2023/02/10 05:11:10;;;;;;;;;;;2.90;1.00;;;;;;4938750;29;19915;-79
2023/02/10 05:14:26;;;;;;;;;;;2.90;1.00;;;;;;4976795;28;19921;-80
2023/02/10 05:29:42;;;;;;;;;;;2.60;1.00;;;;;;5018311;28;19917;-80
2023/02/10 05:32:26;;;;;;;;;;;2.50;1.00;;;;;;5060235;22;19945;-80
2023/02/10 05:40:54;;;;;;;;;;;2.50;12.10;;;;;;5077659;28;19932;-80
2023/02/10 05:44:00;;;;;;;;;;;2.50;15.40;;;;;;5077121;28;19913;-80
2023/02/10 05:46:43;;;;;;;;;;;2.50;20.70;;;;;;5055236;28;19909;-80
2023/02/10 05:52:44;;;;;;;;;;;;;;;;;;;;;
2023/02/10 05:55:50;;;;;;;;;;;2.50;19.80;;;;;;5076661;28;19995;-80
2023/02/10 05:58:32;;;;;;;;;;;2.60;21.20;;;;;;5055668;28;19931;-80
2023/02/10 06:27:39;;;;;;;;;;;2.00;26.80;;;;;;4996851;28;19910;-79
2023/02/10 06:30:55;;;;;;;;;;;2.00;27.30;;;;;;4989684;28;19980;-79
2023/02/10 06:36:42;;;;;;;;;;;1.90;26.60;;;;;;5035189;28;20004;-80
2023/02/10 06:39:46;;;;;;;;;;;1.90;24.60;;;;;;5038925;28;19964;-80
2023/02/10 06:43:12;;;;;;;;;;;;;;;;;;;;;
2023/02/10 06:49:25;;;;;;;;;;;1.80;27.10;;;;;;5024440;28;20368;-80
2023/02/10 06:52:38;;;;;;;;;;;;;;;;;;;;;
2023/02/10 07:01:59;;;;;;;;;;;;;;;;;;;;;
2023/02/10 07:10:36;;;;;;;;;;;1.80;25.50;;;;;;5019146;28;19916;-80
2023/02/10 07:13:36;;;;;;;;;;;1.80;24.10;;;;;;5014975;28;19941;-80
2023/02/10 07:16:37;;;;;;;;;;;;;;;;;;;;;
2023/02/10 07:19:06;;;;;;;;;;;1.80;23.60;;;;;;5038384;28;19915;-80
2023/02/10 07:25:15;;;;;;;;;;;1.80;30.00;;;;;;4940482;29;20017;-79
2023/02/10 07:33:38;;;;;;;;;;;1.80;44.40;;;;;;5035582;28;19955;-80
2023/02/10 07:36:17;;;;;;;;;;;;;;;;;;;;;
2023/02/10 07:39:03;;;;;;;;;;;1.90;53.50;;;;;;5038185;28;19913;-80
2023/02/10 07:45:20;;;;;;;;;;;;;;;;;;;;;
2023/02/10 07:53:55;;;;;;;;;;;2.20;53.70;;;;;;5020781;28;19909;-80
2023/02/10 07:56:41;;;;;;;;;;;2.20;54.70;;;;;;5036819;28;19909;-80
2023/02/10 07:59:23;;;;;;;;;;;2.30;61.80;;;;;;5020244;28;19920;-79
2023/02/10 08:02:05;;;;;;;;;;;2.40;58.90;;;;;;5037937;28;19913;-80
2023/02/10 08:04:42;;;;;;;;;;;2.50;57.70;;;;;;5037741;28;19995;-80
2023/02/10 08:11:03;;;;;;;;;;;2.60;62.10;;;;;;4974779;28;20387;-80
2023/02/10 08:14:14;;;;;;;;;;;;;;;;;;;;;
2023/02/10 08:19:36;;;;;;;;;;;3.00;51.00;;;;;;4974095;28;19920;-79
2023/02/10 08:25:37;;;;;;;;;;;;;;;;;;;;;
2023/02/10 08:28:09;;;;;;;;;;;3.40;47.50;;;;;;5055499;28;20433;-78
2023/02/10 08:30:42;;;;;;;;;;;3.50;37.10;;;;;;5055879;28;19991;-79
2023/02/10 08:33:20;;;;;;;;;;;3.60;31.00;;;;;;5056531;28;19909;-79
2023/02/10 08:35:57;;;;;;;;;;;3.70;29.80;;;;;;5037812;28;19909;-79
2023/02/10 08:38:28;;;;;;;;;;;3.80;24.90;;;;;;5056340;28;19913;-79
2023/02/10 08:41:20;;;;;;;;;;;3.90;22.90;;;;;;5055858;28;20381;-78
2023/02/10 08:44:17;;;;;;;;;;;4.10;18.70;;;;;;5055418;28;19919;-79
2023/02/10 08:47:14;;;;;;;;;;;4.30;9.90;;;;;;5035121;28;19990;-79
2023/02/10 08:50:05;;;;;;;;;;;4.50;1.00;;;;;;5055045;28;19916;-80
2023/02/10 08:52:33;;;;;;;;;;;4.60;1.00;;;;;;5055019;28;20286;-79
2023/02/10 08:55:21;;;;;;;;;;;4.80;1.00;;;;;;5037174;28;19909;-79
2023/02/10 09:00:47;;;;;;;;;;;5.00;1.00;;;;;;5073735;22;19925;-79
2023/02/10 09:03:12;;;;;;;;;;;5.30;1.00;;;;;;5076526;28;20274;-80
2023/02/10 09:05:38;;;;;;;;;;;5.40;1.00;;;;;;5058630;28;19908;-79
2023/02/10 09:08:03;;;;;;;;;;;5.60;1.00;;;;;;5076280;28;19909;-79
2023/02/10 09:10:29;;;;;;;;;;;5.70;1.00;;;;;;5057161;28;20015;-79
2023/02/10 09:12:54;;;;;;;;;;;5.90;1.00;;;;;;5075789;28;19904;-80
2023/02/10 09:15:20;;;;;;;;;;;6.10;1.00;;;;;;5063878;28;20316;-79
2023/02/10 09:17:45;;;;;;;;;;;6.30;1.00;;;;;;5080685;28;19908;-79
2023/02/10 09:20:11;;;;;;;;;;;6.40;1.00;;;;;;5049427;28;19913;-79
2023/02/10 09:22:36;;;;;;;;;;;6.60;1.00;;;;;;5041059;28;19920;-79
2023/02/10 09:25:02;;;;;;;;;;;6.90;1.00;;;;;;5040424;28;19912;-79
2023/02/10 09:27:27;;;;;;;;;;;7.20;1.00;;;;;;5040418;28;20511;-80
2023/02/10 09:29:53;;;;;;;;;;;7.40;1.00;;;;;;5040823;28;19909;-80
2023/02/10 09:32:19;;;;;;;;;;;7.70;1.00;;;;;;5058083;28;19909;-79
2023/02/10 09:34:45;;;;;;;;;;;7.90;99.90;;;;;;5038855;28;19909;-79
2023/02/10 09:37:10;;;;;;;;;;;8.00;99.90;;;;;;5057010;28;20463;-79
2023/02/10 09:39:38;;;;;;;;;;;8.10;99.90;;;;;;5060030;28;19913;-79
2023/02/10 09:42:26;;;;;;;;;;;8.20;12.10;;;;;;5042993;28;19958;-79
2023/02/10 09:45:02;;;;;;;;;;;8.30;13.00;;;;;;5060683;28;19920;-79
2023/02/10 09:47:27;;;;;;;;;;;8.50;1.00;;;;;;5042189;28;19976;-79
2023/02/10 09:50:12;;;;;;;;;;;8.60;1.00;;;;;;5042810;28;20436;-79
2023/02/10 09:52:56;;;;;;;;;;;8.50;1.00;;;;;;5041832;28;19915;-79
2023/02/10 09:55:26;;;;;;;;;;;8.50;1.00;;;;;;5060262;28;19913;-79
2023/02/10 09:57:56;;;;;;;;;;;8.60;1.00;;;;;;5060071;28;20007;-79
2023/02/10 10:00:28;;;;;;;;;;;8.60;1.00;;;;;;5042306;28;19909;-80
2023/02/10 10:02:55;;;;;;;;;;;8.70;1.00;;;;;;5041720;28;19920;-79
2023/02/10 10:05:39;;;;;;;;;;;8.90;99.90;;;;;;5059340;28;20373;-79
2023/02/10 10:08:11;;;;;;;;;;;8.90;99.90;;;;;;5058917;28;19908;-80
2023/02/10 10:10:41;;;;;;;;;;;9.10;99.90;;;;;;5073892;28;19919;-79
2023/02/10 10:13:13;;;;;;;;;;;9.30;31.80;;;;;;5061061;28;19912;-79
2023/02/10 10:15:42;;;;;;;;;;;9.50;99.90;;;;;;5079338;28;19915;-79
2023/02/10 10:18:30;;;;;;;;;;;9.60;99.90;;;;;;5060976;28;19908;-79
2023/02/10 10:21:09;;;;;;;;;;;9.50;99.90;;;;;;5076405;28;20011;-80
2023/02/10 10:23:43;;;;;;;;;;;9.40;1.00;;;;;;5061347;28;19926;-80
2023/02/10 10:26:13;;;;;;;;;;;9.30;1.00;;;;;;5078946;28;19947;-79
2023/02/10 10:28:44;;;;;;;;;;;9.30;1.00;;;;;;5061005;28;19909;-79
2023/02/10 10:31:17;;;;;;;;;;;9.30;1.00;;;;;;5078985;28;20380;-79
2023/02/10 10:33:55;;;;;;;;;;;9.30;99.90;;;;;;5060928;28;19908;-79
2023/02/10 10:36:41;;;;;;;;;;;9.20;1.00;;;;;;5060955;28;19908;-80
2023/02/10 10:39:11;;;;;;;;;;;9.20;1.00;;;;;;5078498;28;19913;-79
2023/02/10 10:41:37;;;;;;;;;;;9.40;32.20;;;;;;5060006;28;20470;-79
2023/02/10 10:44:02;;;;;;;;;;;9.30;99.90;;;;;;5079483;28;19913;-79
2023/02/10 10:46:39;;;;;;;;;;;9.40;1.00;;;;;;5079023;28;19919;-79
2023/02/10 10:49:04;;;;;;;;;;;9.30;99.90;;;;;;5079495;28;20214;-79
2023/02/10 10:51:30;;;;;;;;;;;9.50;1.00;;;;;;5077121;28;19912;-80
2023/02/10 10:53:57;;;;;;;;;;;9.60;1.00;;;;;;5078326;28;19913;-79
2023/02/10 10:56:22;;;;;;;;;;;9.90;99.90;;;;;;5060381;28;19915;-80
2023/02/10 10:58:49;;;;;;;;;;;9.90;1.00;;;;;;5060642;28;19998;-79
2023/02/10 11:01:30;;;;;;;;;;;9.90;1.00;;;;;;5078223;28;19909;-79
2023/02/10 11:04:12;;;;;;;;;;;10.20;99.90;;;;;;5077955;28;19912;-79
2023/02/10 11:06:39;;;;;;;;;;;10.30;1.00;;;;;;5078501;28;19912;-79
2023/02/10 11:09:06;;;;;;;;;;;10.60;1.00;;;;;;5060075;28;19915;-79
2023/02/10 11:11:36;;;;;;;;;;;10.80;1.00;;;;;;5156248;22;19955;-83
2023/02/10 11:14:03;;;;;;;;;;;11.10;1.00;;;;;;5057788;28;19923;-84
2023/02/10 11:16:28;;;;;;;;;;;11.20;99.90;;;;;;5069498;28;19913;-85
2023/02/10 11:18:55;;;;;;;;;;;11.40;99.90;;;;;;5058355;28;19915;-83
2023/02/10 11:21:21;;;;;;;;;;;11.60;1.00;;;;;;5058436;28;19916;-84
2023/02/10 11:23:51;;;;;;;;;;;11.90;99.90;;;;;;5058899;28;20377;-85
2023/02/10 11:26:18;;;;;;;;;;;12.50;99.90;;;;;;5057905;28;19962;-84
2023/02/10 11:28:43;;;;;;;;;;;13.00;1.00;;;;;;5058093;28;19918;-84
2023/02/10 11:31:21;;;;;;;;;;;13.40;1.00;;;;;;5042951;28;20382;-83
2023/02/10 11:34:16;;;;;;;;;;;14.30;1.00;;;;;;5061805;28;19916;-82
2023/02/10 11:36:42;;;;;;;;;;;14.10;1.00;;;;;;5045235;28;19909;-84
2023/02/10 11:39:26;;;;;;;;;;;13.50;1.00;;;;;;5058193;28;19990;-84
2023/02/10 11:41:52;;;;;;;;;;;13.20;1.00;;;;;;5057030;28;19908;-83
2023/02/10 11:44:24;;;;;;;;;;;12.80;1.00;;;;;;5076657;28;20019;-85
2023/02/10 11:46:57;;;;;;;;;;;12.90;1.00;;;;;;5076785;28;19937;-84
2023/02/10 11:49:23;;;;;;;;;;;12.50;1.00;;;;;;5058739;28;19909;-84
2023/02/10 11:51:56;;;;;;;;;;;12.10;1.00;;;;;;5057585;28;20270;-85
2023/02/10 11:54:22;;;;;;;;;;;12.00;1.00;;;;;;5057527;28;19915;-85
2023/02/10 11:59:47;;;;;;;;;;;11.70;50.90;;;;;;5071188;28;20289;-83
2023/02/10 12:02:22;;;;;;;;;;;11.60;50.00;;;;;;5043712;28;19909;-83
2023/02/10 12:04:55;;;;;;;;;;;11.40;99.90;;;;;;5032357;28;19920;-84
2023/02/10 12:07:44;;;;;;;;;;;11.40;99.90;;;;;;5050507;28;20014;-84
2023/02/10 12:10:17;;;;;;;;;;;11.40;99.90;;;;;;5024792;28;19944;-84
2023/02/10 12:12:47;;;;;;;;;;;11.20;99.90;;;;;;5053055;28;19917;-83
2023/02/10 12:15:21;;;;;;;;;;;11.10;99.90;;;;;;5053398;28;20417;-83
2023/02/10 12:18:07;;;;;;;;;;;11.00;99.90;;;;;;5035697;28;19932;-84
2023/02/10 12:20:39;;;;;;;;;;;10.80;37.30;;;;;;5053130;28;20293;-85
2023/02/10 12:23:24;;;;;;;;;;;10.90;36.10;;;;;;5035324;28;20324;-85
2023/02/10 12:25:52;;;;;;;;;;;10.60;1.00;;;;;;5035363;28;20271;-84
2023/02/10 12:28:26;;;;;;;;;;;10.50;75.90;;;;;;5035278;28;20302;-85
2023/02/10 12:31:17;;;;;;;;;;;10.60;79.70;;;;;;5034813;28;19955;-84
2023/02/10 12:33:58;;;;;;;;;;;10.70;95.80;;;;;;5049982;28;19908;-85
2023/02/10 12:36:32;;;;;;;;;;;10.60;1.00;;;;;;5053478;28;20285;-83
2023/02/10 12:39:22;;;;;;;;;;;10.80;1.00;;;;;;5052024;28;20003;-84
2023/02/10 12:42:06;;;;;;;;;;;11.10;1.00;;;;;;5034552;28;19909;-84
2023/02/10 12:44:50;;;;;;;;;;;12.20;1.00;;;;;;5052739;28;19919;-84
2023/02/10 12:47:29;;;;;;;;;;;12.70;1.00;;;;;;5051496;28;20382;-83
2023/02/10 12:50:05;;;;;;;;;;;13.50;1.00;;;;;;5034962;28;20290;-84
2023/02/10 12:52:31;;;;;;;;;;;13.70;1.00;;;;;;5034932;28;19909;-83
2023/02/10 12:54:56;;;;;;;;;;;13.90;1.00;;;;;;5052537;28;19916;-84
2023/02/10 12:57:28;;;;;;;;;;;14.10;1.00;;;;;;5051220;28;19909;-84
2023/02/10 12:59:56;;;;;;;;;;;14.30;1.00;;;;;;5052575;28;19920;-83
2023/02/10 13:02:28;;;;;;;;;;;14.70;1.00;;;;;;5034225;28;20057;-86
2023/02/10 13:04:56;;;;;;;;;;;15.60;1.00;;;;;;5034434;28;20320;-85
2023/02/10 13:07:32;;;;;;;;;;;16.50;1.00;;;;;;5052074;28;19909;-85
2023/02/10 13:10:16;;;;;;;;;;;16.20;1.00;;;;;;5034687;28;19945;-85
2023/02/10 13:12:43;;;;;;;;;;;16.50;1.00;;;;;;5050548;28;20270;-84
2023/02/10 13:15:12;;;;;;;;;;;16.50;1.00;;;;;;5034303;28;19913;-85
2023/02/10 13:17:48;;;;;;;;;;;16.70;1.00;;;;;;5051390;28;19970;-85
2023/02/10 13:20:32;;;;;;;;;;;17.10;1.00;;;;;;5034117;28;19909;-85
2023/02/10 13:23:06;;;;;;;;;;;16.70;1.00;;;;;;5050766;28;20012;-85
2023/02/10 13:25:48;;;;;;;;;;;16.90;1.00;;;;;;5034764;28;20392;-85
2023/02/10 13:28:34;;;;;;;;;;;16.30;1.00;;;;;;5034209;28;19909;-84
2023/02/10 13:31:21;;;;;;;;;;;15.70;99.90;;;;;;5051948;28;19913;-85
2023/02/10 13:33:55;;;;;;;;;;;16.00;99.90;;;;;;5034704;28;19913;-85
2023/02/10 13:36:25;;;;;;;;;;;16.20;99.90;;;;;;5034554;28;19919;-85
2023/02/10 13:38:57;;;;;;;;;;;16.20;99.90;;;;;;5035176;28;20385;-86
2023/02/10 13:41:45;;;;;;;;;;;15.70;99.90;;;;;;5034198;28;20498;-84
2023/02/10 13:44:24;;;;;;;;;;;15.40;99.90;;;;;;5034154;28;20385;-84
2023/02/10 13:47:08;;;;;;;;;;;15.60;99.90;;;;;;5051975;28;20001;-85
2023/02/10 13:49:36;;;;;;;;;;;15.20;99.90;;;;;;5052507;28;19909;-85
2023/02/10 13:52:06;;;;;;;;;;;15.20;99.90;;;;;;5034183;28;19916;-84
2023/02/10 13:54:32;;;;;;;;;;;14.90;99.90;;;;;;5033039;28;20512;-83
2023/02/10 13:56:58;;;;;;;;;;;14.70;99.90;;;;;;5029774;28;19920;-84
2023/02/10 13:59:34;;;;;;;;;;;14.30;99.90;;;;;;5034515;28;19909;-85
2023/02/10 14:01:59;;;;;;;;;;;14.30;99.90;;;;;;5034117;28;20356;-84
2023/02/10 14:04:26;;;;;;;;;;;14.00;99.90;;;;;;5052504;28;20004;-84
2023/02/10 14:06:53;;;;;;;;;;;13.80;99.90;;;;;;5028097;28;20382;-84
2023/02/10 14:09:22;;;;;;;;;;;13.90;99.90;;;;;;5014821;28;19909;-85
2023/02/10 14:11:51;;;;;;;;;;;13.90;99.90;;;;;;5015129;28;20390;-87
2023/02/10 14:14:18;;;;;;;;;;;13.70;99.90;;;;;;5016877;28;19963;-86
2023/02/10 14:16:45;;;;;;;;;;;13.80;99.90;;;;;;5015055;28;19909;-85
2023/02/10 14:19:32;;;;;;;;;;;13.80;99.90;;;;;;5014797;28;19916;-85
2023/02/10 14:21:58;;;;;;;;;;;13.80;99.90;;;;;;5014850;28;20004;-83
2023/02/10 14:24:26;;;;;;;;;;;13.40;99.90;;;;;;5016172;28;20388;-85
2023/02/10 14:26:52;;;;;;;;;;;13.30;99.90;;;;;;5019941;28;19912;-85
2023/02/10 14:29:19;;;;;;;;;;;13.30;99.90;;;;;;5020106;28;19909;-84
2023/02/10 14:31:45;;;;;;;;;;;13.60;99.90;;;;;;5019010;28;19968;-85
2023/02/10 14:34:27;;;;;;;;;;;13.70;99.90;;;;;;5020989;28;20322;-85
2023/02/10 14:37:00;;;;;;;;;;;13.70;99.90;;;;;;5043773;28;19913;-86
2023/02/10 14:39:30;;;;;;;;;;;13.80;99.90;;;;;;5040955;28;19909;-86
2023/02/10 14:42:00;;;;;;;;;;;13.20;99.90;;;;;;5040620;28;19932;-85
2023/02/10 14:44:46;;;;;;;;;;;13.10;99.90;;;;;;5040238;28;19919;-86
2023/02/10 14:47:40;;;;;;;;;;;12.90;99.90;;;;;;5040482;28;19909;-86
2023/02/10 14:50:06;;;;;;;;;;;12.80;99.90;;;;;;5037695;28;20289;-85
2023/02/10 14:52:32;;;;;;;;;;;12.70;99.90;;;;;;5040486;28;19909;-87
2023/02/10 14:54:58;;;;;;;;;;;12.60;99.90;;;;;;5040403;28;19909;-84
2023/02/10 14:57:30;;;;;;;;;;;12.30;99.90;;;;;;5040574;28;20344;-83
2023/02/10 14:59:59;;;;;;;;;;;12.10;1.00;;;;;;5022372;28;19909;-82
2023/02/10 15:02:27;;;;;;;;;;;11.90;1.00;;;;;;5039871;28;19956;-84
2023/02/10 15:04:54;;;;;;;;;;;11.70;1.00;;;;;;5021555;28;19935;-84
2023/02/10 15:07:21;;;;;;;;;;;11.70;1.00;;;;;;5021503;28;19917;-84
2023/02/10 15:09:47;;;;;;;;;;;11.80;1.00;;;;;;5021469;28;19909;-83
2023/02/10 15:12:16;;;;;;;;;;;11.70;1.00;;;;;;5020605;28;20400;-85
2023/02/10 15:15:04;;;;;;;;;;;11.80;1.00;;;;;;5018491;28;20417;-84
2023/02/10 15:17:38;;;;;;;;;;;11.80;1.00;;;;;;5007255;28;19928;-84
2023/02/10 15:20:13;;;;;;;;;;;11.70;1.00;;;;;;5018595;28;19989;-85
2023/02/10 15:22:43;;;;;;;;;;;11.60;1.00;;;;;;5020947;28;19910;-83
2023/02/10 15:25:27;;;;;;;;;;;11.60;1.00;;;;;;5020929;28;19913;-82
2023/02/10 15:27:56;;;;;;;;;;;11.50;1.00;;;;;;5019269;28;19912;-85
2023/02/10 15:30:23;;;;;;;;;;;11.50;1.00;;;;;;5036311;28;19978;-83
2023/02/10 15:32:53;;;;;;;;;;;11.50;1.00;;;;;;5020228;28;20394;-82
2023/02/10 15:35:19;;;;;;;;;;;11.30;1.00;;;;;;5020235;28;19909;-82
2023/02/10 15:38:03;;;;;;;;;;;11.20;1.00;;;;;;5018188;28;19915;-82
2023/02/10 15:40:31;;;;;;;;;;;11.10;1.00;;;;;;5024371;28;19917;-82
2023/02/10 15:42:57;;;;;;;;;;;10.90;1.00;;;;;;5029244;28;19909;-86
2023/02/10 15:45:23;;;;;;;;;;;10.90;1.00;;;;;;5029284;28;19913;-84
2023/02/10 15:48:08;;;;;;;;;;;10.80;1.00;;;;;;5055838;28;19909;-83
2023/02/10 15:50:37;;;;;;;;;;;10.70;1.00;;;;;;5037396;28;19909;-84
2023/02/10 15:53:04;;;;;;;;;;;10.60;1.00;;;;;;5037095;28;19909;-85
2023/02/10 15:55:31;;;;;;;;;;;10.60;1.00;;;;;;5037963;28;19912;-84
2023/02/10 15:57:57;;;;;;;;;;;10.60;1.00;;;;;;5045605;28;19916;-84
2023/02/10 16:00:22;;;;;;;;;;;10.60;1.00;;;;;;5045445;28;19912;-83
2023/02/10 16:02:48;;;;;;;;;;;10.50;1.00;;;;;;5037671;28;19931;-83
2023/02/10 16:05:13;;;;;;;;;;;10.50;1.00;;;;;;5036898;28;19920;-82
2023/02/10 16:07:40;;;;;;;;;;;10.50;1.00;;;;;;5037393;28;19912;-82
2023/02/10 16:10:06;;;;;;;;;;;10.40;1.00;;;;;;5037190;28;19912;-83
2023/02/10 16:12:31;;;;;;;;;;;10.30;1.00;;;;;;5037051;28;19928;-82
2023/02/10 16:14:57;;;;;;;;;;;10.20;1.00;;;;;;5037535;28;19909;-82
2023/02/10 16:17:25;;;;;;;;;;;10.10;1.00;;;;;;5055102;28;19908;-83
2023/02/10 16:19:51;;;;;;;;;;;10.10;1.00;;;;;;5036739;28;19912;-83
2023/02/10 16:22:16;;;;;;;;;;;10.00;1.00;;;;;;5054673;28;20251;-85
2023/02/10 16:24:42;;;;;;;;;;;9.90;1.00;;;;;;5036548;28;19913;-84
2023/02/10 16:27:09;;;;;;;;;;;9.80;1.00;;;;;;5054491;28;19909;-81
2023/02/10 16:29:34;;;;;;;;;;;9.70;1.00;;;;;;5054184;28;19959;-82
2023/02/10 16:32:00;;;;;;;;;;;9.70;1.00;;;;;;5035887;28;19909;-82
2023/02/10 16:34:28;;;;;;;;;;;9.60;1.00;;;;;;5036178;28;20000;-82
2023/02/10 16:36:54;;;;;;;;;;;9.50;71.80;;;;;;5054134;28;20354;-81
2023/02/10 16:39:21;;;;;;;;;;;9.40;99.90;;;;;;5054717;28;19948;-82
2023/02/10 16:41:47;;;;;;;;;;;9.30;99.90;;;;;;5053562;28;19909;-82
2023/02/10 16:44:13;;;;;;;;;;;9.20;99.90;;;;;;5036112;28;19944;-82
2023/02/10 16:46:38;;;;;;;;;;;9.20;99.90;;;;;;5035949;28;19915;-82
2023/02/10 16:49:04;;;;;;;;;;;9.10;1.00;;;;;;5035610;28;19967;-82
2023/02/10 16:51:29;;;;;;;;;;;9.00;1.00;;;;;;5055014;28;19913;-82
2023/02/10 16:53:55;;;;;;;;;;;9.00;1.00;;;;;;5035840;28;20366;-83
2023/02/10 16:56:21;;;;;;;;;;;9.00;1.00;;;;;;5053668;28;19999;-82
2023/02/10 16:58:46;;;;;;;;;;;8.90;1.00;;;;;;5053107;28;19909;-82
2023/02/10 17:01:12;;;;;;;;;;;8.70;1.00;;;;;;5035712;28;19940;-82
2023/02/10 17:03:38;;;;;;;;;;;8.60;1.00;;;;;;5036668;28;19909;-83
2023/02/10 17:06:04;;;;;;;;;;;8.50;99.90;;;;;;5036423;28;19956;-82
2023/02/10 17:08:30;;;;;;;;;;;8.40;1.00;;;;;;5054638;28;19959;-82
2023/02/10 17:13:28;;;;;;;;;;;8.30;1.00;;;;;;5056174;28;19939;-79
2023/02/10 17:15:54;;;;;;;;;;;8.40;1.00;;;;;;5040142;28;19909;-79
2023/02/10 17:18:19;;;;;;;;;;;8.30;1.00;;;;;;5040118;28;19909;-78
2023/02/10 17:20:45;;;;;;;;;;;8.40;1.00;;;;;;5039072;28;20338;-79
2023/02/10 17:23:13;;;;;;;;;;;8.40;1.00;;;;;;5039644;28;19916;-79
2023/02/10 17:25:39;;;;;;;;;;;8.40;1.00;;;;;;5057105;28;19913;-79
2023/02/10 17:28:04;;;;;;;;;;;8.30;1.00;;;;;;5039247;28;20015;-78
2023/02/10 17:30:30;;;;;;;;;;;8.30;99.90;;;;;;5039789;28;19909;-79
2023/02/10 17:32:55;;;;;;;;;;;8.20;99.90;;;;;;5038416;28;19936;-79
2023/02/10 17:35:22;;;;;;;;;;;8.20;99.90;;;;;;5049149;28;19913;-78
2023/02/10 17:38:44;;;;;;;;;;;8.20;99.90;;;;;;5039184;28;19962;-78
2023/02/10 17:40:33;;;;;;;;;;;8.10;99.90;;;;;;5036275;28;19920;-78
2023/02/10 17:42:59;;;;;;;;;;;8.10;1.00;;;;;;5036436;28;19913;-78
2023/02/10 17:45:25;;;;;;;;;;;8.10;99.90;;;;;;5039200;28;19917;-79
2023/02/10 17:47:51;;;;;;;;;;;8.20;1.00;;;;;;5049065;28;19916;-78
2023/02/10 17:50:16;;;;;;;;;;;8.20;99.90;;;;;;5057425;28;19909;-78
2023/02/10 17:52:42;;;;;;;;;;;8.20;1.00;;;;;;5038759;28;19912;-79
2023/02/10 17:55:07;;;;;;;;;;;8.30;99.90;;;;;;5040176;28;19909;-78
2023/02/10 17:57:33;;;;;;;;;;;8.30;99.90;;;;;;5019188;28;20007;-78
2023/02/10 17:59:58;;;;;;;;;;;8.30;99.90;;;;;;5021201;28;19909;-79
2023/02/10 18:02:24;;;;;;;;;;;8.30;99.90;;;;;;5032918;28;19951;-79
2023/02/10 18:04:49;;;;;;;;;;;8.30;99.90;;;;;;5033252;28;19939;-78
2023/02/10 18:07:15;;;;;;;;;;;8.30;99.90;;;;;;5022950;28;20003;-78
2023/02/10 18:09:41;;;;;;;;;;;8.30;99.90;;;;;;5043234;28;19909;-78
2023/02/10 18:12:07;;;;;;;;;;;8.30;99.90;;;;;;5041972;28;19924;-79
2023/02/10 18:14:33;;;;;;;;;;;8.20;99.90;;;;;;5043182;28;20305;-79
2023/02/10 18:16:59;;;;;;;;;;;8.20;99.90;;;;;;5059976;28;19909;-79
2023/02/10 18:19:25;;;;;;;;;;;8.20;99.90;;;;;;5040987;28;19909;-79
2023/02/10 18:21:50;;;;;;;;;;;8.20;99.90;;;;;;5060200;28;20007;-78
2023/02/10 18:24:16;;;;;;;;;;;8.20;99.90;;;;;;5042034;28;19943;-80
2023/02/10 18:26:41;;;;;;;;;;;8.20;99.90;;;;;;5033827;28;19913;-79
2023/02/10 18:29:08;;;;;;;;;;;8.20;99.90;;;;;;5051652;28;19979;-80
2023/02/10 18:31:34;;;;;;;;;;;8.10;99.90;;;;;;5022312;28;20293;-80
2023/02/10 18:33:59;;;;;;;;;;;8.00;1.00;;;;;;5041101;28;19959;-80
2023/02/10 18:36:24;;;;;;;;;;;8.00;1.00;;;;;;5021450;28;19909;-80
2023/02/10 18:38:50;;;;;;;;;;;8.00;99.90;;;;;;5020514;28;19959;-80
2023/02/10 18:41:16;;;;;;;;;;;8.10;99.90;;;;;;5038479;28;19909;-80
2023/02/10 18:43:41;;;;;;;;;;;8.00;99.90;;;;;;5052280;28;19969;-79
2023/02/10 18:46:07;;;;;;;;;;;8.10;99.90;;;;;;5058842;28;20366;-80
2023/02/10 18:48:32;;;;;;;;;;;8.10;99.90;;;;;;5040906;28;19912;-80
2023/02/10 18:51:01;;;;;;;;;;;8.20;99.90;;;;;;5039932;28;19962;-80
2023/02/10 18:53:26;;;;;;;;;;;8.20;99.90;;;;;;5036592;28;19936;-79
2023/02/10 18:55:52;;;;;;;;;;;8.10;99.90;;;;;;5038785;28;19917;-80
2023/02/10 18:58:17;;;;;;;;;;;8.10;99.90;;;;;;5038596;28;19912;-80
2023/02/10 19:00:43;;;;;;;;;;;8.20;99.90;;;;;;5038070;28;19909;-80
2023/02/10 19:03:09;;;;;;;;;;;8.20;99.90;;;;;;5036592;28;19909;-80
2023/02/10 19:05:35;;;;;;;;;;;8.20;99.90;;;;;;5038750;28;19913;-80
2023/02/10 19:08:00;;;;;;;;;;;8.20;99.90;;;;;;5037004;28;19909;-79
2023/02/10 19:10:27;;;;;;;;;;;8.20;99.90;;;;;;5037987;28;19915;-79
2023/02/10 19:12:53;;;;;;;;;;;8.20;99.90;;;;;;5035889;28;20012;-79
2023/02/10 19:15:18;;;;;;;;;;;8.30;99.90;;;;;;5038075;28;20347;-79
2023/02/10 19:17:44;;;;;;;;;;;8.30;99.90;;;;;;5036880;28;19941;-79
2023/02/10 19:20:10;;;;;;;;;;;8.20;99.90;;;;;;5037883;28;19917;-80
2023/02/10 19:22:35;;;;;;;;;;;8.20;99.90;;;;;;5037748;28;19909;-79
2023/02/10 19:25:01;;;;;;;;;;;8.20;99.90;;;;;;5037796;28;19920;-79
2023/02/10 19:27:27;;;;;;;;;;;8.20;99.90;;;;;;5036736;28;19909;-79
2023/02/10 19:29:52;;;;;;;;;;;8.30;99.90;;;;;;5037094;28;20374;-79
2023/02/10 19:32:17;;;;;;;;;;;8.30;99.90;;;;;;5019575;28;20430;-78
2023/02/10 19:34:43;;;;;;;;;;;8.30;99.90;;;;;;5036035;28;19913;-79
2023/02/10 19:37:10;;;;;;;;;;;8.30;99.90;;;;;;5036453;28;19909;-79
2023/02/10 19:39:35;;;;;;;;;;;8.20;99.90;;;;;;5039454;28;19927;-78
2023/02/10 19:42:01;;;;;;;;;;;8.20;99.90;;;;;;5041837;28;20011;-79
2023/02/10 19:44:27;;;;;;;;;;;8.30;99.90;;;;;;5040463;28;19928;-79
2023/02/10 19:46:52;;;;;;;;;;;8.40;99.90;;;;;;5057743;28;20360;-79
2023/02/10 19:49:18;;;;;;;;;;;8.40;99.90;;;;;;5039247;28;20007;-79
2023/02/10 19:51:44;;;;;;;;;;;8.40;99.90;;;;;;5057472;28;20283;-79
2023/02/10 19:54:10;;;;;;;;;;;8.30;99.90;;;;;;5031343;28;19909;-79
2023/02/10 19:56:38;;;;;;;;;;;8.40;99.90;;;;;;5031029;28;19909;-79
2023/02/10 19:59:04;;;;;;;;;;;8.40;99.90;;;;;;5038952;28;19920;-79
2023/02/10 20:01:30;;;;;;;;;;;8.30;99.90;;;;;;5053432;28;20111;-79
2023/02/10 20:03:55;;;;;;;;;;;8.40;99.90;;;;;;5042731;28;19913;-79
2023/02/10 20:06:26;;;;;;;;;;;8.30;99.90;;;;;;5047875;28;19909;-79
2023/02/10 20:08:51;;;;;;;;;;;8.30;99.90;;;;;;5054808;28;19909;-79
2023/02/10 20:11:17;;;;;;;;;;;8.30;99.90;;;;;;5037856;28;20285;-79
2023/02/10 20:13:43;;;;;;;;;;;8.30;99.90;;;;;;5037916;28;19917;-80
2023/02/10 20:16:08;;;;;;;;;;;8.20;99.90;;;;;;5018388;28;19910;-80
2023/02/10 20:18:34;;;;;;;;;;;8.30;99.90;;;;;;5037660;28;19912;-79
2023/02/10 20:21:02;;;;;;;;;;;8.20;99.90;;;;;;5056163;28;19992;-79
2023/02/10 20:23:28;;;;;;;;;;;8.20;99.90;;;;;;5055218;28;19916;-78
2023/02/10 20:25:54;;;;;;;;;;;8.10;99.90;;;;;;5038123;28;19936;-79
2023/02/10 20:28:20;;;;;;;;;;;8.10;99.90;;;;;;5056351;28;19912;-79
2023/02/10 20:30:46;;;;;;;;;;;8.20;99.90;;;;;;5055450;28;19959;-79